Time;durP1;ratioP1;P1;durP2;ratioP2;P2;SDS_P1;SDS_P2;PMS_P1;PMS_P2;Temp;Humidity;BMP_temperature;BMP_pressure;BME280_temperature;BME280_humidity;BME280_pressure;Samples;Min_cycle;Max_cycle;Signal;HPM_P1;HPM_P2
2022/07/18 00:00:46;;;;;;;8.98;6.30;;;;;;;15.57;75.63;99832.03;4935868;29;20086;-82
2022/07/18 00:03:13;;;;;;;11.82;6.75;;;;;;;15.51;75.81;99823.38;4935735;29;20059;-81
2022/07/18 00:05:40;;;;;;;17.45;9.25;;;;;;;15.57;76.01;99833.75;4935736;29;20063;-81
2022/07/18 00:08:07;;;;;;;14.48;11.05;;;;;;;15.19;75.93;99755.50;4935589;29;20115;-82
2022/07/18 00:10:34;;;;;;;16.48;10.85;;;;;;;15.61;75.71;99824.91;4935651;29;20115;-81
2022/07/18 00:13:01;;;;;;;15.48;11.07;;;;;;;15.64;75.64;99838.03;4935518;29;20058;-82
2022/07/18 00:15:28;;;;;;;18.67;12.57;;;;;;;15.68;75.41;99831.84;4935722;29;20056;-82
2022/07/18 00:17:55;;;;;;;17.90;13.80;;;;;;;15.64;75.52;99814.34;4934045;29;20466;-81
2022/07/18 00:20:22;;;;;;;23.10;15.70;;;;;;;15.59;75.31;99816.16;4936079;29;20083;-80
2022/07/18 00:22:50;;;;;;;21.95;15.80;;;;;;;15.73;75.52;99837.91;4903464;29;20059;-81
2022/07/18 00:25:17;;;;;;;24.33;17.75;;;;;;;15.63;75.29;99817.00;4935253;29;20580;-83
2022/07/18 00:27:44;;;;;;;25.58;17.58;;;;;;;15.76;75.10;99829.06;4918298;29;20060;-82
2022/07/18 00:30:12;;;;;;;25.90;18.45;;;;;;;15.66;75.21;99825.72;4934171;29;20509;-82
2022/07/18 00:32:39;;;;;;;28.17;20.55;;;;;;;15.62;75.54;99833.72;4936243;29;20052;-81
2022/07/18 00:35:07;;;;;;;25.75;19.92;;;;;;;15.40;76.11;99785.81;4935356;29;20052;-83
2022/07/18 00:37:34;;;;;;;28.58;20.55;;;;;;;15.61;75.79;99827.53;4935294;29;20070;-83
2022/07/18 00:40:02;;;;;;;29.13;20.92;;;;;;;15.50;76.13;99803.19;4935337;29;20058;-79
2022/07/18 00:42:29;;;;;;;28.95;21.60;;;;;;;15.60;76.62;99828.47;4937098;29;20056;-81
2022/07/18 00:44:56;;;;;;;25.63;19.58;;;;;;;15.60;76.30;99828.47;4941968;29;20048;-80
2022/07/18 00:47:24;;;;;;;24.70;17.48;;;;;;;15.56;76.46;99830.25;4941832;29;20055;-80
2022/07/18 00:49:51;;;;;;;24.38;18.60;;;;;;;15.50;76.68;99811.09;4941896;29;20059;-81
2022/07/18 00:52:18;;;;;;;25.13;15.32;;;;;;;15.50;76.45;99818.97;4941310;29;20441;-82
2022/07/18 00:54:45;;;;;;;22.65;16.13;;;;;;;15.42;76.87;99824.34;4941518;29;20118;-81
2022/07/18 00:57:13;;;;;;;21.92;13.95;;;;;;;15.49;77.05;99831.28;4941750;29;20060;-82
2022/07/18 01:02:26;;;;;;;17.85;13.10;;;;;;;15.66;76.79;99841.53;4941528;29;20529;-81
2022/07/18 01:04:54;;;;;;;14.73;10.48;;;;;;;15.73;76.20;99835.28;4941806;29;20060;-84
2022/07/18 01:07:21;;;;;;;14.05;9.38;;;;;;;15.47;75.71;99782.19;4941407;29;20502;-83
2022/07/18 01:09:48;;;;;;;14.70;9.23;;;;;;;15.59;75.57;99828.47;4941844;29;20565;-81
2022/07/18 01:12:15;;;;;;;14.65;9.10;;;;;;;15.62;75.70;99833.72;4941419;29;20083;-83
2022/07/18 01:14:42;;;;;;;12.95;9.15;;;;;;;15.56;75.98;99824.13;4941566;29;20061;-83
2022/07/18 01:17:18;;;;;;;10.77;7.97;;;;;;;15.61;75.59;99824.06;4940506;29;20070;-84
2022/07/18 01:19:47;;;;;;;9.48;7.55;;;;;;;15.65;75.52;99829.22;4944012;29;20051;-81
2022/07/18 01:22:16;;;;;;;9.50;7.65;;;;;;;15.36;75.89;99775.34;4943005;29;20051;-81
2022/07/18 01:24:43;;;;;;;10.20;7.53;;;;;;;15.61;75.46;99824.06;4941214;29;20051;-79
2022/07/18 01:27:15;;;;;;;10.18;7.97;;;;;;;15.69;75.45;99833.56;4941318;29;20059;-82
2022/07/18 01:29:43;;;;;;;10.48;7.57;;;;;;;15.62;75.62;99823.19;4941619;29;20055;-83
2022/07/18 01:32:10;;;;;;;12.13;7.78;;;;;;;15.72;75.75;99836.19;4941466;29;20103;-81
2022/07/18 01:34:38;;;;;;;10.70;8.43;;;;;;;15.74;75.84;99839.66;4941506;29;20055;-82
2022/07/18 01:37:06;;;;;;;12.40;8.50;;;;;;;15.40;75.78;99802.50;4941862;29;20066;-80
2022/07/18 01:39:33;;;;;;;13.23;8.13;;;;;;;15.61;75.85;99831.94;4941435;29;20051;-79
2022/07/18 01:42:07;;;;;;;13.00;8.40;;;;;;;15.38;76.21;99798.13;4924362;29;20440;-84
2022/07/18 01:44:36;;;;;;;12.10;8.90;;;;;;;15.47;76.15;99817.28;4941770;29;20055;-83
2022/07/18 01:47:05;;;;;;;12.68;8.60;;;;;;;15.52;76.71;99838.25;4941202;29;20417;-82
2022/07/18 01:49:32;;;;;;;12.50;8.60;;;;;;;15.52;76.74;99828.56;4941321;29;20150;-83
2022/07/18 01:52:02;;;;;;;12.75;8.88;;;;;;;15.55;76.68;99833.81;4924216;29;20055;-85
2022/07/18 01:54:32;;;;;;;11.50;8.05;;;;;;;15.56;77.00;99819.75;4939508;29;20056;-80
2022/07/18 01:57:00;;;;;;;13.75;8.52;;;;;;;15.49;76.77;99815.47;4937903;29;20063;-80
2022/07/18 01:59:27;;;;;;;13.40;8.77;;;;;;;15.62;76.75;99842.47;4920996;29;20052;-80
2022/07/18 02:01:54;;;;;;;12.82;8.98;;;;;;;15.56;76.77;99825.00;4920865;29;20118;-81
2022/07/18 02:04:59;;;;;;;13.85;8.80;;;;;;;15.65;76.91;99836.28;4938236;29;20060;-83
2022/07/18 02:07:12;;;;;;;13.20;8.60;;;;;;;15.76;76.79;99845.72;4938068;29;20059;-83
2022/07/18 02:09:39;;;;;;;13.15;8.40;;;;;;;15.69;76.93;99804.59;4937872;29;20115;-81
2022/07/18 02:12:06;;;;;;;12.45;8.27;;;;;;;15.84;76.93;99821.03;4938257;29;20079;-80
2022/07/18 02:14:33;;;;;;;14.95;9.45;;;;;;;15.92;76.72;99856.88;4939434;29;20130;-80
2022/07/18 02:17:00;;;;;;;14.65;8.93;;;;;;;15.92;76.64;99838.44;4938457;29;20060;-78
2022/07/18 02:19:27;;;;;;;12.15;8.30;;;;;;;15.89;76.82;99825.31;4952735;29;20067;-80
2022/07/18 02:21:55;;;;;;;13.13;8.88;;;;;;;15.96;76.44;99834.00;4942418;29;20052;-84
2022/07/18 02:24:22;;;;;;;12.93;8.65;;;;;;;15.97;76.53;99833.94;4937951;29;20083;-80
2022/07/18 02:26:49;;;;;;;15.20;9.85;;;;;;;16.00;76.52;99824.25;4936375;29;20153;-80
2022/07/18 02:29:16;;;;;;;17.90;10.68;;;;;;;15.96;76.19;99831.34;4937803;29;20064;-80
2022/07/18 02:31:43;;;;;;;17.25;11.40;;;;;;;15.97;76.74;99835.72;4937728;29;20058;-84
2022/07/18 02:34:10;;;;;;;18.88;12.23;;;;;;;15.95;76.58;99829.59;4937920;29;20060;-84
2022/07/18 02:36:39;;;;;;;21.95;14.20;;;;;;;15.81;76.74;99800.91;4962908;29;20054;-77
2022/07/18 02:39:06;;;;;;;21.40;14.40;;;;;;;15.90;76.76;99824.44;4938417;29;20485;-85
2022/07/18 02:41:34;;;;;;;21.75;14.32;;;;;;;15.85;76.96;99821.03;4937826;29;20083;-82
2022/07/18 02:44:02;;;;;;;18.80;13.85;;;;;;;15.87;77.05;99819.19;4937450;29;20087;-83
2022/07/18 02:46:29;;;;;;;17.42;12.23;;;;;;;15.82;76.91;99839.50;4936715;29;20474;-81
2022/07/18 02:48:56;;;;;;;15.65;9.95;;;;;;;15.76;76.82;99827.31;4937471;29;20079;-84
2022/07/18 02:51:23;;;;;;;13.65;8.57;;;;;;;15.75;76.57;99825.56;4937079;29;20146;-81
2022/07/18 02:53:50;;;;;;;12.43;8.00;;;;;;;15.79;76.71;99836.94;4937517;29;20055;-79
2022/07/18 02:56:17;;;;;;;9.98;6.95;;;;;;;15.73;76.54;99837.91;4937315;29;20063;-83
2022/07/18 02:58:45;;;;;;;9.50;6.53;;;;;;;15.67;75.86;99810.78;4937049;29;20441;-82
2022/07/18 03:01:12;;;;;;;9.18;5.85;;;;;;;15.82;75.75;99839.50;4936940;29;20059;-84
2022/07/18 03:03:39;;;;;;;7.72;5.57;;;;;;;15.73;75.36;99822.09;4920410;29;20502;-79
2022/07/18 03:06:08;;;;;;;8.20;5.47;;;;;;;15.75;75.54;99829.97;4935951;29;20056;-83
2022/07/18 03:08:35;;;;;;;8.63;5.47;;;;;;;15.82;75.46;99838.63;4920502;29;20065;-82
2022/07/18 03:11:02;;;;;;;9.57;5.43;;;;;;;15.83;75.76;99841.25;4936871;29;20540;-83
2022/07/18 03:13:29;;;;;;;6.35;5.20;;;;;;;15.80;75.69;99833.38;4936788;29;20114;-82
2022/07/18 03:15:56;;;;;;;6.50;4.82;;;;;;;15.72;75.08;99814.22;4937128;29;20058;-80
2022/07/18 03:18:24;;;;;;;7.47;4.93;;;;;;;15.83;75.16;99848.25;4936888;29;20461;-80
2022/07/18 03:20:51;;;;;;;9.07;4.85;;;;;;;15.87;75.34;99831.50;4919831;29;20055;-84
2022/07/18 03:23:18;;;;;;;7.38;4.47;;;;;;;15.65;75.11;99770.44;4936480;29;20106;-82
2022/07/18 03:25:45;;;;;;;8.63;4.43;;;;;;;15.97;74.15;99814.63;4936718;29;20102;-82
2022/07/18 03:28:12;;;;;;;6.55;4.43;;;;;;;16.20;74.17;99819.47;4936399;29;20059;-84
2022/07/18 03:30:39;;;;;;;7.53;4.80;;;;;;;16.35;73.35;99827.03;4936489;29;20142;-83
2022/07/18 03:33:06;;;;;;;8.75;4.38;;;;;;;16.61;72.76;99816.84;4936492;29;20496;-82
2022/07/18 03:35:33;;;;;;;5.65;4.22;;;;;;;17.30;70.09;99805.56;4935843;29;20055;-84
2022/07/18 03:38:00;;;;;;;5.80;3.85;;;;;;;17.55;69.23;99832.22;4936727;29;20106;-82
2022/07/18 03:40:27;;;;;;;3.90;3.50;;;;;;;19.90;62.24;99787.16;4936412;29;20054;-81
2022/07/18 03:42:54;;;;;;;4.85;3.03;;;;;;;21.39;56.48;99810.56;4935824;29;20410;-79
2022/07/18 03:45:21;;;;;;;5.07;2.72;;;;;;;20.53;57.65;99808.66;4939309;29;20429;-79
2022/07/18 03:47:48;;;;;;;4.65;3.33;;;;;;;19.82;59.70;99805.97;4939038;29;20532;-83
2022/07/18 03:50:15;;;;;;;5.40;3.10;;;;;;;19.43;60.86;99785.22;4935929;29;20411;-80
2022/07/18 03:52:42;;;;;;;4.60;2.90;;;;;;;19.55;60.74;99822.78;4936465;29;20071;-82
2022/07/18 03:55:09;;;;;;;3.30;2.80;;;;;;;19.17;60.47;99795.81;4936242;29;20090;-83
2022/07/18 03:57:36;;;;;;;4.85;3.03;;;;;;;19.06;61.33;99819.13;4936315;29;20067;-81
2022/07/18 04:00:08;;;;;;;3.15;2.85;;;;;;;18.88;61.76;99810.84;4936920;29;20052;-80
2022/07/18 04:02:44;;;;;;;3.78;2.95;;;;;;;18.67;62.43;99811.47;4937357;29;20062;-83
2022/07/18 04:05:12;;;;;;;3.22;2.92;;;;;;;18.59;63.22;99806.44;4936159;29;20051;-82
2022/07/18 04:07:40;;;;;;;3.60;3.20;;;;;;;18.60;63.19;99785.22;4942776;29;20417;-81
2022/07/18 04:10:08;;;;;;;4.95;3.30;;;;;;;18.88;62.31;99799.41;4946786;29;20087;-78
2022/07/18 04:12:45;;;;;;;3.97;3.20;;;;;;;18.69;62.60;99762.03;4945625;29;20146;-81
2022/07/18 04:15:12;;;;;;;5.95;3.17;;;;;;;19.06;62.37;99800.59;4946278;29;20115;-83
2022/07/18 04:17:39;;;;;;;4.47;3.20;;;;;;;19.21;61.92;99805.41;4948367;29;20083;-80
2022/07/18 04:20:07;;;;;;;4.28;3.00;;;;;;;19.39;61.52;99799.47;4948241;29;20071;-82
2022/07/18 04:22:55;;;;;;;3.75;2.90;;;;;;;19.73;60.41;99771.84;4945591;29;20099;-82
2022/07/18 04:25:24;;;;;;;3.75;2.90;;;;;;;20.07;58.62;99798.91;4935905;29;20086;-82
2022/07/18 04:27:51;;;;;;;3.60;2.77;;;;;;;20.13;58.19;99788.09;4936290;29;20514;-88
2022/07/18 04:30:21;;;;;;;3.88;2.70;;;;;;;20.04;57.95;99768.06;4935949;29;20823;-83
2022/07/18 04:32:48;;;;;;;3.72;2.72;;;;;;;20.24;58.04;99778.81;4936205;29;20051;-84
2022/07/18 04:35:20;;;;;;;3.50;3.08;;;;;;;20.15;57.56;99754.41;4919063;29;20406;-84
2022/07/18 04:37:47;;;;;;;5.35;2.90;;;;;;;20.24;57.47;99786.78;4936490;29;20106;-82
2022/07/18 04:40:15;;;;;;;5.35;3.58;;;;;;;20.21;57.33;99778.91;4943661;29;20059;-81
2022/07/18 04:42:42;;;;;;;3.28;2.92;;;;;;;20.25;57.91;99801.75;4936699;29;20060;-81
2022/07/18 04:45:10;;;;;;;7.00;3.35;;;;;;;20.18;57.69;99815.31;4936571;29;20075;-81
2022/07/18 04:47:37;;;;;;;6.07;2.85;;;;;;;19.98;58.55;99797.47;4935956;29;20055;-81
2022/07/18 04:50:06;;;;;;;4.05;3.13;;;;;;;20.27;58.17;99812.31;4937215;29;20115;-81
2022/07/18 04:52:42;;;;;;;4.57;3.40;;;;;;;20.28;57.64;99826.44;4939659;29;20051;-81
2022/07/18 04:55:10;;;;;;;3.75;3.00;;;;;;;20.13;58.56;99822.56;4935671;29;20512;-81
2022/07/18 04:57:38;;;;;;;6.85;3.47;;;;;;;19.91;58.82;99814.50;4918101;29;20071;-82
2022/07/18 05:00:08;;;;;;;4.68;3.40;;;;;;;19.87;59.24;99829.66;4935430;29;20087;-82
2022/07/18 05:02:40;;;;;;;7.30;4.00;;;;;;;19.91;58.95;99836.59;4934916;29;20052;-80
2022/07/18 05:05:09;;;;;;;6.20;4.03;;;;;;;20.03;59.08;99820.25;4918593;29;20052;-80
2022/07/18 05:07:38;;;;;;;6.87;4.63;;;;;;;20.28;58.51;99819.31;4935201;29;20055;-80
2022/07/18 05:10:08;;;;;;;10.60;4.72;;;;;;;20.42;58.08;99819.69;4935372;29;20335;-81
2022/07/18 05:12:37;;;;;;;8.10;4.40;;;;;;;20.55;57.72;99828.03;4918136;29;20150;-81
2022/07/18 05:15:06;;;;;;;8.10;4.97;;;;;;;20.74;57.29;99838.00;4935008;29;20048;-81
2022/07/18 05:17:34;;;;;;;8.73;4.72;;;;;;;20.65;57.44;99794.97;4934538;29;20514;-81
2022/07/18 05:20:02;;;;;;;6.85;4.53;;;;;;;20.96;56.59;99848.63;4935175;29;20147;-81
2022/07/18 05:22:29;;;;;;;10.80;4.80;;;;;;;20.87;57.20;99836.59;4934480;29;20047;-81
2022/07/18 05:24:56;;;;;;;7.18;4.47;;;;;;;20.55;58.02;99828.03;4934990;29;20517;-81
2022/07/18 05:27:23;;;;;;;7.88;5.32;;;;;;;20.25;58.68;99790.28;4935174;29;20513;-82
2022/07/18 05:29:50;;;;;;;8.02;5.07;;;;;;;20.71;58.19;99793.84;4936098;29;20052;-81
2022/07/18 05:32:17;;;;;;;8.88;5.20;;;;;;;20.89;57.24;99760.41;4938443;29;20082;-81
2022/07/18 05:34:46;;;;;;;9.18;5.85;;;;;;;21.26;56.43;99799.56;4938568;29;20087;-81
2022/07/18 05:37:13;;;;;;;11.60;5.85;;;;;;;21.24;55.96;99790.81;4938618;29;20098;-81
2022/07/18 05:39:40;;;;;;;9.02;5.57;;;;;;;21.08;56.64;99795.03;4937703;29;20090;-81
2022/07/18 05:42:07;;;;;;;10.32;5.68;;;;;;;21.06;55.56;99751.75;4938310;29;20535;-82
2022/07/18 05:44:34;;;;;;;9.45;5.03;;;;;;;21.19;55.17;99794.59;4937107;29;20055;-82
2022/07/18 05:47:01;;;;;;;11.90;5.53;;;;;;;20.64;55.38;99737.50;4938390;29;20066;-81
2022/07/18 05:49:28;;;;;;;6.20;4.43;;;;;;;21.09;55.17;99794.09;4937987;29;20062;-81
2022/07/18 05:51:56;;;;;;;7.90;4.82;;;;;;;21.29;54.67;99790.59;4938041;29;20493;-83
2022/07/18 05:54:23;;;;;;;7.03;4.97;;;;;;;21.48;54.97;99780.97;4937609;29;20083;-81
2022/07/18 05:56:53;;;;;;;9.48;5.03;;;;;;;21.57;54.58;99776.19;4939806;29;20102;-84
2022/07/18 05:59:21;;;;;;;9.75;4.90;;;;;;;21.24;54.67;99744.78;4938332;29;20052;-80
2022/07/18 06:01:50;;;;;;;7.55;5.00;;;;;;;21.43;54.72;99779.44;4938400;29;20055;-83
2022/07/18 06:04:23;;;;;;;8.05;4.45;;;;;;;21.25;54.20;99771.28;4922353;29;20126;-81
2022/07/18 06:06:50;;;;;;;6.78;4.07;;;;;;;21.27;53.36;99771.22;4938504;29;20062;-82
2022/07/18 06:09:17;;;;;;;7.90;4.38;;;;;;;21.23;53.66;99729.75;4937956;29;20059;-81
2022/07/18 06:11:46;;;;;;;6.60;4.93;;;;;;;21.51;53.30;99750.75;4941320;29;20081;-79
2022/07/18 06:14:14;;;;;;;6.57;4.45;;;;;;;21.70;52.41;99742.81;4942432;29;20142;-84
2022/07/18 06:16:41;;;;;;;7.35;4.38;;;;;;;21.99;52.25;99772.56;4937629;29;20434;-84
2022/07/18 06:19:08;;;;;;;6.13;3.97;;;;;;;22.03;52.04;99764.38;4921493;29;20458;-80
2022/07/18 06:21:37;;;;;;;6.68;4.18;;;;;;;21.93;51.82;99771.03;4937920;29;20054;-83
2022/07/18 06:24:04;;;;;;;9.05;4.60;;;;;;;21.91;52.39;99761.41;4937766;29;20142;-87
2022/07/18 06:26:32;;;;;;;7.13;4.45;;;;;;;22.07;52.36;99747.34;4937293;29;20433;-81
2022/07/18 06:28:58;;;;;;;7.38;4.82;;;;;;;22.11;51.74;99733.91;4937701;29;20055;-84
2022/07/18 06:31:25;;;;;;;9.30;5.35;;;;;;;22.11;51.84;99741.88;4937706;29;20059;-87
2022/07/18 06:33:53;;;;;;;7.85;4.97;;;;;;;22.38;51.72;99759.25;4920239;29;20063;-82
2022/07/18 06:36:26;;;;;;;6.13;4.32;;;;;;;22.25;52.17;99758.97;4937419;29;20064;-81
2022/07/18 06:38:53;;;;;;;6.28;4.78;;;;;;;22.49;52.00;99764.94;4937506;29;20085;-81
2022/07/18 06:41:20;;;;;;;9.25;4.90;;;;;;;22.87;50.52;99758.72;4937182;29;20142;-78
2022/07/18 06:43:47;;;;;;;9.50;5.40;;;;;;;23.04;50.56;99747.25;4937087;29;20048;-84
2022/07/18 06:46:14;;;;;;;7.90;4.97;;;;;;;23.07;49.33;99758.59;4937473;29;20055;-81
2022/07/18 06:48:41;;;;;;;7.90;5.10;;;;;;;22.88;50.15;99763.94;4937259;29;20146;-86
2022/07/18 06:51:08;;;;;;;8.88;4.75;;;;;;;22.65;50.11;99751.78;4937068;29;20063;-82
2022/07/18 06:53:35;;;;;;;8.10;4.70;;;;;;;22.88;50.20;99763.09;4937117;29;20051;-84
2022/07/18 06:56:02;;;;;;;8.77;5.47;;;;;;;22.60;51.13;99731.63;4937114;29;20056;-82
2022/07/18 06:58:33;;;;;;;7.28;4.65;;;;;;;22.80;50.70;99773.25;4936989;29;20055;-80
2022/07/18 07:01:00;;;;;;;7.10;4.18;;;;;;;22.38;51.14;99716.69;4937085;29;20055;-83
2022/07/18 07:03:28;;;;;;;9.43;4.82;;;;;;;22.92;50.73;99751.34;4937176;29;20070;-80
2022/07/18 07:05:55;;;;;;;8.80;4.63;;;;;;;22.88;50.35;99736.44;4922503;29;20142;-81
2022/07/18 07:08:22;;;;;;;8.73;4.40;;;;;;;22.94;50.44;99759.28;4941154;29;20150;-80
2022/07/18 07:10:49;;;;;;;6.95;4.55;;;;;;;23.03;50.40;99770.34;4942590;29;20560;-81
2022/07/18 07:13:16;;;;;;;7.22;4.45;;;;;;;23.13;49.85;99760.09;4944508;29;20048;-81
2022/07/18 07:15:44;;;;;;;6.20;4.30;;;;;;;23.17;50.32;99763.50;4943663;29;20101;-80
2022/07/18 07:18:11;;;;;;;6.05;4.32;;;;;;;23.48;49.24;99757.44;4941007;29;20063;-81
2022/07/18 07:20:38;;;;;;;10.45;6.30;;;;;;;23.50;49.08;99758.22;4936603;29;20059;-83
2022/07/18 07:23:07;;;;;;;10.13;4.68;;;;;;;23.56;48.12;99752.59;4936794;29;20478;-84
2022/07/18 07:25:36;;;;;;;4.80;3.53;;;;;;;23.84;47.69;99736.03;4937056;29;20055;-81
2022/07/18 07:28:04;;;;;;;4.73;3.47;;;;;;;23.96;46.43;99736.31;4937473;29;20466;-83
2022/07/18 07:30:33;;;;;;;5.03;3.08;;;;;;;23.67;45.77;99696.03;4937477;29;20077;-81
2022/07/18 07:33:01;;;;;;;3.60;3.30;;;;;;;23.83;46.05;99736.97;4938983;29;20051;-83
2022/07/18 07:35:29;;;;;;;6.03;3.00;;;;;;;23.80;45.76;99713.13;4940100;29;20055;-83
2022/07/18 07:37:59;;;;;;;4.95;3.00;;;;;;;23.77;45.68;99734.63;4940330;29;20059;-82
2022/07/18 07:40:28;;;;;;;6.72;2.90;;;;;;;23.78;45.34;99684.81;4919640;29;20063;-83
2022/07/18 07:43:09;;;;;;;6.25;3.53;;;;;;;23.99;45.19;99693.47;4936081;29;20082;-82
2022/07/18 07:45:36;;;;;;;4.88;3.10;;;;;;;24.24;45.20;99715.19;4935812;29;20453;-81
2022/07/18 07:48:05;;;;;;;3.88;2.92;;;;;;;24.30;44.59;99730.84;4936042;29;20199;-83
2022/07/18 07:50:32;;;;;;;7.45;2.70;;;;;;;24.16;44.47;99733.44;4936008;29;20142;-80
2022/07/18 07:53:00;;;;;;;3.53;2.67;;;;;;;23.97;44.92;99732.72;4935454;29;20064;-80
2022/07/18 07:55:28;;;;;;;5.32;2.90;;;;;;;23.87;44.37;99678.97;4935984;29;20091;-82
2022/07/18 07:57:55;;;;;;;4.35;2.88;;;;;;;24.18;43.81;99720.88;4935684;29;20557;-82
2022/07/18 08:00:22;;;;;;;4.15;2.60;;;;;;;23.59;44.06;99677.75;4935865;29;20051;-81
2022/07/18 08:02:58;;;;;;;3.45;2.60;;;;;;;23.77;44.39;99707.97;4935355;29;20083;-81
2022/07/18 08:05:31;;;;;;;3.97;2.53;;;;;;;24.04;44.42;99712.75;4935814;29;20142;-81
2022/07/18 08:07:59;;;;;;;3.75;2.90;;;;;;;24.39;43.87;99709.91;4936153;29;20052;-82
2022/07/18 08:10:27;;;;;;;2.65;2.42;;;;;;;24.48;42.83;99699.63;4918586;29;20059;-85
2022/07/18 08:12:54;;;;;;;5.63;2.33;;;;;;;24.23;42.50;99708.13;4935635;29;20055;-81
2022/07/18 08:15:21;;;;;;;3.28;2.58;;;;;;;23.78;43.13;99706.16;4935979;29;20515;-82
2022/07/18 08:17:48;;;;;;;2.72;2.47;;;;;;;23.99;43.12;99701.47;4935270;29;20154;-83
2022/07/18 08:20:19;;;;;;;3.90;2.58;;;;;;;24.32;42.39;99680.91;4935870;29;20083;-81
2022/07/18 08:23:06;;;;;;;2.80;2.60;;;;;;;24.73;41.88;99703.56;4936014;29;20138;-82
2022/07/18 08:25:36;;;;;;;3.00;2.40;;;;;;;24.48;41.75;99707.63;4937316;29;20421;-82
2022/07/18 08:28:04;;;;;;;4.50;2.60;;;;;;;24.60;41.41;99703.41;4918566;29;20090;-79
2022/07/18 08:30:32;;;;;;;2.80;2.40;;;;;;;24.72;41.19;99701.84;4934976;29;20056;-81
2022/07/18 08:33:00;;;;;;;3.83;2.65;;;;;;;24.83;40.58;99694.06;4935858;29;20135;-79
2022/07/18 08:35:29;;;;;;;5.50;2.75;;;;;;;25.14;40.63;99690.47;4936652;29;20083;-82
2022/07/18 08:37:56;;;;;;;5.88;3.05;;;;;;;25.27;40.03;99693.25;4940887;29;20083;-79
2022/07/18 08:40:24;;;;;;;4.88;3.10;;;;;;;24.89;41.05;99676.81;4927162;29;20059;-80
2022/07/18 08:42:53;;;;;;;3.70;2.78;;;;;;;24.36;41.45;99644.22;4945479;29;20071;-79
2022/07/18 08:45:43;;;;;;;3.83;2.80;;;;;;;23.99;42.31;99645.47;4944288;29;20060;-80
2022/07/18 08:48:14;;;;;;;3.80;3.47;;;;;;;24.23;42.08;99676.09;4938088;29;20082;-82
2022/07/18 08:50:46;;;;;;;3.72;3.33;;;;;;;24.19;42.06;99665.69;4935479;29;20138;-85
2022/07/18 08:53:14;;;;;;;5.07;2.67;;;;;;;24.15;42.88;99664.97;4935452;29;20083;-84
2022/07/18 08:55:42;;;;;;;4.47;3.33;;;;;;;24.27;42.02;99650.09;4934810;29;20103;-84
2022/07/18 08:58:13;;;;;;;4.72;3.58;;;;;;;24.25;42.04;99644.00;4918329;29;20510;-81
2022/07/18 09:01:00;;;;;;;4.40;3.47;;;;;;;23.90;43.14;99637.00;4935295;29;20059;-78
2022/07/18 09:03:28;;;;;;;6.22;2.83;;;;;;;24.02;42.68;99647.94;4918598;29;20062;-83
2022/07/18 09:06:04;;;;;;;6.28;3.25;;;;;;;24.06;43.86;99662.84;4938320;29;20585;-82
2022/07/18 09:08:32;;;;;;;5.85;3.00;;;;;;;23.69;44.76;99655.00;4938243;29;20091;-80
2022/07/18 09:11:01;;;;;;;4.18;3.10;;;;;;;23.46;45.90;99650.03;4937289;29;20064;-79
2022/07/18 09:13:34;;;;;;;4.88;3.13;;;;;;;23.19;45.97;99653.22;4937868;29;20416;-83
2022/07/18 09:16:01;;;;;;;3.30;3.00;;;;;;;23.19;46.18;99652.34;4938494;29;20056;-86
2022/07/18 09:18:31;;;;;;;5.97;2.80;;;;;;;23.05;46.13;99637.94;4936740;29;20424;-86
2022/07/18 09:21:06;;;;;;;4.45;2.80;;;;;;;22.93;46.16;99635.91;4937469;29;20481;-79
2022/07/18 09:23:35;;;;;;;3.63;2.60;;;;;;;23.15;45.85;99649.00;4920753;29;20058;-83
2022/07/18 09:26:03;;;;;;;5.53;2.78;;;;;;;23.30;45.96;99658.00;4952550;29;20047;-81
2022/07/18 09:28:52;;;;;;;4.32;2.97;;;;;;;23.43;45.48;99650.22;4937681;29;20060;-80
2022/07/18 09:31:47;;;;;;;3.85;2.92;;;;;;;23.61;44.05;99651.88;4937457;29;20071;-81
2022/07/18 09:34:32;;;;;;;3.55;2.72;;;;;;;23.85;43.07;99648.88;4938009;29;20071;-83
2022/07/18 09:36:59;;;;;;;4.28;2.67;;;;;;;24.02;42.67;99659.47;4937956;29;20087;-82
2022/07/18 09:39:26;;;;;;;2.67;2.47;;;;;;;24.12;41.77;99641.16;4937414;29;20070;-83
2022/07/18 09:41:53;;;;;;;3.25;2.95;;;;;;;24.26;41.11;99649.25;4937499;29;20094;-85
2022/07/18 09:44:21;;;;;;;2.95;2.65;;;;;;;24.43;41.66;99661.59;4938051;29;20150;-81
2022/07/18 09:47:04;;;;;;;3.50;3.20;;;;;;;24.64;41.38;99637.34;4937111;29;20593;-82
2022/07/18 09:49:33;;;;;;;4.05;3.40;;;;;;;24.67;41.10;99637.16;4936118;29;20051;-82
2022/07/18 09:52:06;;;;;;;5.75;3.65;;;;;;;24.57;40.74;99639.50;4920097;29;20347;-81
2022/07/18 09:54:38;;;;;;;4.03;3.13;;;;;;;24.63;41.00;99638.28;4937160;29;20074;-81
2022/07/18 09:57:06;;;;;;;6.10;2.78;;;;;;;24.40;41.23;99631.56;4937347;29;20059;-79
2022/07/18 09:59:34;;;;;;;3.65;2.83;;;;;;;24.50;40.91;99635.44;4937055;29;20589;-81
2022/07/18 10:02:04;;;;;;;4.78;3.20;;;;;;;24.17;40.36;99572.38;4936721;29;20461;-82
2022/07/18 10:04:31;;;;;;;;;;;;;;;24.49;41.08;99623.91;4937794;29;20051;-80
2022/07/18 10:06:59;;;;;;;3.92;2.80;;;;;;;24.33;40.86;99625.75;4937156;29;19931;-80
2022/07/18 10:09:26;;;;;;;4.47;2.90;;;;;;;24.08;41.33;99620.91;4936848;29;20055;-78
2022/07/18 10:11:54;;;;;;;5.18;2.90;;;;;;;24.22;41.47;99623.69;4919286;29;20053;-80
2022/07/18 10:14:29;;;;;;;5.75;3.10;;;;;;;24.41;41.45;99619.94;4936879;29;20505;-80
2022/07/18 10:17:05;;;;;;;5.10;2.80;;;;;;;24.30;41.08;99623.22;4936168;29;20429;-78
2022/07/18 10:19:35;;;;;;;3.83;2.63;;;;;;;24.31;41.09;99623.16;4936709;29;20087;-79
2022/07/18 10:22:05;;;;;;;6.75;2.60;;;;;;;24.24;40.77;99621.78;4936925;29;20079;-79
2022/07/18 10:24:32;;;;;;;2.42;2.22;;;;;;;24.41;40.19;99612.78;4936538;29;20048;-81
2022/07/18 10:27:19;;;;;;;2.95;2.40;;;;;;;24.32;40.90;99605.31;4936911;29;20051;-78
2022/07/18 10:30:10;;;;;;;3.75;2.90;;;;;;;24.38;41.20;99602.28;4934349;29;20413;-80
2022/07/18 10:32:38;;;;;;;4.18;2.67;;;;;;;24.33;40.83;99594.56;4928177;29;20059;-81
2022/07/18 10:35:08;;;;;;;4.03;2.47;;;;;;;24.57;39.90;99596.78;4935987;29;20099;-82
2022/07/18 10:37:35;;;;;;;7.63;2.90;;;;;;;24.66;40.04;99587.38;4937747;29;20083;-81
2022/07/18 10:40:24;;;;;;;3.85;3.03;;;;;;;24.76;40.22;99590.34;4938342;29;20142;-82
2022/07/18 10:43:31;;;;;;;3.40;3.08;;;;;;;24.62;40.42;99586.69;4938042;29;20151;-79
2022/07/18 10:46:00;;;;;;;6.80;3.33;;;;;;;24.51;40.75;99607.81;4943763;29;20059;-80
2022/07/18 10:48:32;;;;;;;4.43;3.35;;;;;;;24.44;41.02;99585.94;4937419;29;20059;-81
2022/07/18 10:51:01;;;;;;;5.32;3.30;;;;;;;24.50;41.11;99584.72;4937084;29;20056;-81
2022/07/18 10:54:02;;;;;;;3.60;2.83;;;;;;;24.75;41.11;99580.63;4938236;29;20063;-80
2022/07/18 10:56:36;;;;;;;3.97;3.10;;;;;;;25.00;40.48;99580.00;4936799;29;20055;-78
2022/07/18 10:59:17;;;;;;;5.82;3.47;;;;;;;25.16;39.97;99577.25;4936898;29;20497;-81
2022/07/18 11:01:55;;;;;;;5.40;3.22;;;;;;;25.09;39.70;99561.59;4936697;29;20402;-81
2022/07/18 11:04:27;;;;;;;4.72;2.80;;;;;;;25.10;40.08;99571.34;4937004;29;20052;-80
2022/07/18 11:07:08;;;;;;;5.05;2.90;;;;;;;24.94;40.62;99559.88;4937092;29;20146;-81
2022/07/18 11:09:40;;;;;;;5.45;3.63;;;;;;;24.70;40.81;99565.72;4936700;29;20066;-80
2022/07/18 11:12:30;;;;;;;3.72;3.10;;;;;;;24.44;41.36;99529.88;4919449;29;20071;-82
2022/07/18 11:15:13;;;;;;;3.60;2.90;;;;;;;24.18;42.79;99555.41;4936010;29;20626;-84
2022/07/18 11:17:59;;;;;;;5.07;3.28;;;;;;;23.93;42.80;99553.28;4936628;29;20126;-81
2022/07/18 11:20:35;;;;;;;5.07;2.60;;;;;;;23.79;42.77;99546.09;4936631;29;20056;-79
2022/07/18 11:23:16;;;;;;;5.03;3.25;;;;;;;23.78;43.07;99544.34;4936561;29;20075;-78
2022/07/18 11:25:45;;;;;;;7.20;3.33;;;;;;;23.56;43.26;99503.81;4919430;29;20142;-81
2022/07/18 11:28:28;;;;;;;3.75;2.95;;;;;;;23.71;42.89;99546.47;4916734;29;20127;-80
2022/07/18 11:31:01;;;;;;;3.42;3.00;;;;;;;23.86;43.26;99538.59;4917446;29;20112;-79
2022/07/18 11:33:30;;;;;;;3.33;2.92;;;;;;;24.11;41.59;99519.34;4917706;29;20058;-82
2022/07/18 11:36:09;;;;;;;2.90;2.60;;;;;;;24.41;40.84;99534.53;4917452;29;20079;-79
2022/07/18 11:38:54;;;;;;;3.50;2.55;;;;;;;24.73;39.73;99503.25;4917396;29;20056;-81
2022/07/18 11:41:23;;;;;;;3.75;2.47;;;;;;;24.60;38.81;99486.28;4917404;29;20582;-82
2022/07/18 11:43:51;;;;;;;3.40;2.53;;;;;;;24.30;40.41;99513.81;4916834;29;20127;-81
2022/07/18 11:46:22;;;;;;;3.65;2.75;;;;;;;24.14;40.21;99486.31;4916911;29;20403;-78